Time;durP1;ratioP1;P1;durP2;ratioP2;P2;SDS_P1;SDS_P2;PMS_P1;PMS_P2;Temp;Humidity;BMP_temperature;BMP_pressure;BME280_temperature;BME280_humidity;BME280_pressure;Samples;Min_cycle;Max_cycle;Signal;HPM_P1;HPM_P2
2023/06/18 00:00:18;;;;;;;14.50;9.63;;;20.30;99.90;;;;;;5013804;28;20166;-70
2023/06/18 00:02:44;;;;;;;13.38;9.32;;;20.30;99.90;;;;;;5013395;28;20586;-70
2023/06/18 00:05:09;;;;;;;20.13;8.15;;;20.30;99.90;;;;;;5013198;28;20177;-70
2023/06/18 00:07:35;;;;;;;10.95;7.47;;;20.30;99.90;;;;;;5013166;28;20184;-70
2023/06/18 00:10:03;;;;;;;13.38;9.55;;;20.20;99.90;;;;;;5013146;28;20170;-71
2023/06/18 00:12:28;;;;;;;16.08;10.85;;;20.20;99.90;;;;;;5013132;28;20193;-72
2023/06/18 00:14:54;;;;;;;16.48;10.30;;;20.20;99.90;;;;;;5013251;28;20618;-72
2023/06/18 00:17:21;;;;;;;14.80;9.68;;;20.10;99.90;;;;;;5012759;28;20206;-70
2023/06/18 00:19:46;;;;;;;13.88;10.85;;;20.10;99.90;;;;;;5012907;28;20194;-73
2023/06/18 00:22:14;;;;;;;10.90;8.40;;;20.10;99.90;;;;;;5013204;28;20170;-74
2023/06/18 00:24:40;;;;;;;12.25;8.27;;;;;;;;;;5013056;28;20257;-74
2023/06/18 00:27:06;;;;;;;15.43;8.23;;;20.00;99.90;;;;;;5013265;28;20174;-74
2023/06/18 00:29:31;;;;;;;12.15;8.18;;;19.90;99.90;;;;;;5012913;28;20174;-74
2023/06/18 00:31:57;;;;;;;20.70;10.07;;;19.90;99.90;;;;;;5014879;28;20182;-74
2023/06/18 00:34:32;;;;;;;11.15;8.55;;;;;;;;;;5014566;28;20229;-74
2023/06/18 00:37:03;;;;;;;19.90;10.00;;;19.70;99.90;;;;;;5014270;28;20197;-75
2023/06/18 00:39:28;;;;;;;17.10;10.40;;;19.60;99.90;;;;;;5013686;28;20184;-74
2023/06/18 00:41:54;;;;;;;17.48;11.40;;;19.60;99.90;;;;;;5013592;28;20163;-75
2023/06/18 00:44:21;;;;;;;12.73;8.85;;;19.50;99.90;;;;;;5013427;28;20257;-75
2023/06/18 00:46:51;;;;;;;9.27;7.60;;;19.50;99.90;;;;;;5013659;28;20171;-74
2023/06/18 00:49:18;;;;;;;15.30;9.20;;;19.40;99.90;;;;;;5014624;28;20182;-75
2023/06/18 00:51:44;;;;;;;11.18;8.75;;;19.30;99.90;;;;;;5016809;28;20240;-74
2023/06/18 00:54:15;;;;;;;11.30;8.27;;;19.30;99.90;;;;;;5014787;28;20182;-74
2023/06/18 00:56:50;;;;;;;11.00;8.35;;;19.30;99.90;;;;;;4995984;28;20634;-74
2023/06/18 00:59:22;;;;;;;16.98;12.15;;;19.30;99.90;;;;;;5014811;28;20186;-69
2023/06/18 01:01:55;;;;;;;16.40;11.07;;;19.30;99.90;;;;;;5016978;28;20169;-72
2023/06/18 01:04:26;;;;;;;16.40;9.02;;;19.20;99.90;;;;;;5024263;28;20175;-71
2023/06/18 01:06:57;;;;;;;13.10;8.82;;;19.00;99.90;;;;;;5020885;28;20346;-72
2023/06/18 01:09:25;;;;;;;15.25;8.27;;;19.00;99.90;;;;;;5014290;28;20175;-73
2023/06/18 01:11:52;;;;;;;11.13;8.45;;;18.90;99.90;;;;;;5012981;28;20221;-76
2023/06/18 01:14:25;;;;;;;11.18;8.75;;;18.80;99.90;;;;;;5013653;28;20175;-76
2023/06/18 01:17:01;;;;;;;12.77;8.60;;;18.90;99.90;;;;;;5014552;28;20185;-75
2023/06/18 01:19:47;;;;;;;10.98;8.38;;;18.80;99.90;;;;;;5014156;28;20197;-74
2023/06/18 01:22:26;;;;;;;12.18;8.52;;;18.70;99.90;;;;;;5012115;28;20229;-71
2023/06/18 01:24:58;;;;;;;9.82;7.95;;;18.70;99.90;;;;;;5011952;28;20170;-70
2023/06/18 01:27:27;;;;;;;12.88;7.90;;;18.60;99.90;;;;;;5011891;28;20232;-71
2023/06/18 01:29:55;;;;;;;10.15;8.35;;;18.60;99.90;;;;;;5011898;28;20205;-72
2023/06/18 01:32:21;;;;;;;15.35;8.48;;;18.60;99.90;;;;;;5011763;28;20170;-71
2023/06/18 01:34:47;;;;;;;12.05;8.25;;;18.50;99.90;;;;;;5011979;28;20219;-71
2023/06/18 01:37:40;;;;;;;15.98;8.00;;;18.50;99.90;;;;;;5012303;28;20222;-71
2023/06/18 01:40:10;;;;;;;9.20;7.80;;;18.50;99.90;;;;;;5011278;28;20253;-71
2023/06/18 01:42:41;;;;;;;14.13;7.80;;;18.50;99.90;;;;;;5019024;28;20166;-73
2023/06/18 01:45:15;;;;;;;12.63;8.10;;;18.40;99.90;;;;;;5021967;28;20170;-71
2023/06/18 01:47:44;;;;;;;9.18;7.40;;;18.50;99.90;;;;;;5002816;28;20166;-69
2023/06/18 01:50:12;;;;;;;10.13;7.78;;;18.40;99.90;;;;;;5012071;28;20547;-72
2023/06/18 01:52:41;;;;;;;10.50;8.05;;;18.40;99.90;;;;;;5006866;28;20301;-72
2023/06/18 01:55:09;;;;;;;12.45;8.52;;;18.40;99.90;;;;;;5003441;28;20231;-72
2023/06/18 01:57:34;;;;;;;9.55;7.47;;;18.50;99.90;;;;;;5011463;28;20237;-72
2023/06/18 02:00:00;;;;;;;10.02;6.82;;;18.50;99.90;;;;;;5011524;28;20198;-72
2023/06/18 02:02:26;;;;;;;14.68;7.22;;;18.50;99.90;;;;;;5011396;28;20198;-76
2023/06/18 02:04:52;;;;;;;7.45;6.45;;;18.50;99.90;;;;;;5011077;28;20225;-74
2023/06/18 02:07:17;;;;;;;9.13;7.50;;;18.50;99.90;;;;;;5014705;28;20683;-74
2023/06/18 02:09:43;;;;;;;12.55;8.32;;;18.50;99.90;;;;;;5023239;28;20181;-74
2023/06/18 02:12:08;;;;;;;13.70;8.65;;;18.60;99.90;;;;;;5011892;28;20660;-74
2023/06/18 02:14:34;;;;;;;10.07;6.93;;;18.60;99.90;;;;;;5011336;28;20179;-74
2023/06/18 02:17:00;;;;;;;10.88;7.10;;;18.60;99.90;;;;;;5011741;28;20649;-74
2023/06/18 02:19:25;;;;;;;10.35;7.00;;;18.50;99.90;;;;;;5012153;28;20194;-74
2023/06/18 02:21:52;;;;;;;8.10;6.80;;;18.60;99.90;;;;;;5015175;28;20179;-73
2023/06/18 02:24:18;;;;;;;11.95;7.00;;;18.60;99.90;;;;;;5015162;28;20248;-72
2023/06/18 02:26:44;;;;;;;9.27;7.28;;;18.60;99.90;;;;;;5015610;28;20638;-72
2023/06/18 02:29:09;;;;;;;15.93;7.95;;;18.70;99.90;;;;;;5015272;28;20176;-74
2023/06/18 02:31:35;;;;;;;10.68;7.78;;;18.60;99.90;;;;;;5015329;28;20641;-73
2023/06/18 02:34:00;;;;;;;9.40;7.38;;;18.70;99.90;;;;;;5015133;28;20645;-72
2023/06/18 02:36:27;;;;;;;11.23;7.43;;;18.00;99.90;;;;;;5014985;28;20313;-73
2023/06/18 02:38:52;;;;;;;8.23;6.97;;;18.70;99.90;;;;;;5017236;28;20688;-73
2023/06/18 02:41:19;;;;;;;11.82;7.28;;;18.70;99.90;;;;;;5031814;28;20184;-76
2023/06/18 02:43:49;;;;;;;10.00;7.40;;;18.80;99.90;;;;;;5015399;28;20178;-74
2023/06/18 02:46:16;;;;;;;12.85;8.27;;;18.80;99.90;;;;;;5015158;28;20664;-74
2023/06/18 02:48:41;;;;;;;11.20;8.82;;;18.80;99.90;;;;;;5026849;28;20261;-74
2023/06/18 02:51:07;;;;;;;10.98;7.38;;;18.80;99.90;;;;;;5034639;28;20652;-80
2023/06/18 02:53:33;;;;;;;11.10;7.85;;;18.80;99.90;;;;;;5028390;28;20546;-73
2023/06/18 02:55:58;;;;;;;13.40;7.25;;;18.70;99.90;;;;;;5014641;28;20183;-74
2023/06/18 02:58:30;;;;;;;11.05;7.72;;;18.60;99.90;;;;;;5022658;28;20404;-74
2023/06/18 03:00:59;;;;;;;9.85;7.68;;;18.50;99.90;;;;;;5027051;28;20646;-74
2023/06/18 03:03:24;;;;;;;12.13;7.43;;;18.40;99.90;;;;;;5014637;28;20671;-75
2023/06/18 03:05:50;;;;;;;12.25;9.05;;;18.40;99.90;;;;;;5017086;28;20166;-75
2023/06/18 03:08:16;;;;;;;11.45;8.93;;;18.40;99.90;;;;;;5014055;28;20186;-74
2023/06/18 03:10:42;;;;;;;13.48;7.80;;;18.40;99.90;;;;;;5031733;28;20181;-73
2023/06/18 03:13:08;;;;;;;12.43;8.40;;;18.30;99.90;;;;;;5009870;28;20179;-72
2023/06/18 03:15:34;;;;;;;15.50;8.18;;;18.30;99.90;;;;;;5014623;28;20525;-72
2023/06/18 03:18:00;;;;;;;11.75;7.68;;;18.20;99.90;;;;;;5031001;28;20273;-71
2023/06/18 03:20:27;;;;;;;12.13;7.15;;;18.20;99.90;;;;;;5033251;28;20270;-71
2023/06/18 03:22:52;;;;;;;11.07;7.68;;;18.20;99.90;;;;;;5030731;28;20177;-73
2023/06/18 03:25:20;;;;;;;11.98;7.50;;;18.10;99.90;;;;;;5034312;28;20231;-72
2023/06/18 03:27:47;;;;;;;10.90;7.57;;;18.10;99.90;;;;;;5030786;28;20189;-72
2023/06/18 03:30:13;;;;;;;8.48;7.57;;;18.10;99.90;;;;;;5018872;28;20170;-70
2023/06/18 03:32:38;;;;;;;11.00;8.20;;;18.10;99.90;;;;;;5016637;28;20389;-72
2023/06/18 03:35:05;;;;;;;8.57;7.15;;;18.00;99.90;;;;;;5017106;28;20701;-70
2023/06/18 03:37:30;;;;;;;9.13;7.60;;;18.00;99.90;;;;;;5014064;28;20194;-67
2023/06/18 03:39:57;;;;;;;13.95;7.80;;;18.00;99.90;;;;;;5025191;28;20253;-67
2023/06/18 03:42:23;;;;;;;11.50;7.70;;;17.90;99.90;;;;;;5017811;28;20254;-75
2023/06/18 03:44:49;;;;;;;13.65;8.05;;;17.90;99.90;;;;;;5023988;28;20189;-75
2023/06/18 03:47:15;;;;;;;9.95;8.00;;;17.90;99.90;;;;;;5023370;28;20238;-75
2023/06/18 03:49:41;;;;;;;12.32;8.88;;;17.80;99.90;;;;;;5027667;28;20193;-73
2023/06/18 03:52:07;;;;;;;13.23;8.98;;;17.70;99.90;;;;;;5016340;28;20713;-73
2023/06/18 03:54:32;;;;;;;12.35;8.23;;;17.60;99.90;;;;;;5015087;28;20180;-74
2023/06/18 03:56:59;;;;;;;16.05;8.65;;;17.60;99.90;;;;;;5012127;28;20649;-74
2023/06/18 03:59:24;;;;;;;10.75;8.57;;;17.50;99.90;;;;;;4996787;28;20179;-74
2023/06/18 04:01:51;;;;;;;10.10;8.90;;;17.50;99.90;;;;;;4999853;28;20652;-74
2023/06/18 04:04:17;;;;;;;12.07;9.25;;;17.50;99.90;;;;;;5013616;28;20186;-74
2023/06/18 04:06:43;;;;;;;15.18;9.73;;;17.40;99.90;;;;;;5013640;28;20170;-74
2023/06/18 04:09:08;;;;;;;15.15;9.85;;;17.50;99.90;;;;;;5013628;28;20194;-74
2023/06/18 04:11:37;;;;;;;13.50;9.85;;;17.50;99.90;;;;;;5014501;28;20514;-75
2023/06/18 04:14:02;;;;;;;17.73;9.90;;;17.50;99.90;;;;;;5014444;28;20178;-75
2023/06/18 04:16:28;;;;;;;16.27;9.68;;;17.70;99.90;;;;;;5017917;28;20175;-74
2023/06/18 04:18:54;;;;;;;12.27;9.57;;;17.50;99.90;;;;;;5014799;28;20644;-75
2023/06/18 04:21:20;;;;;;;12.63;9.75;;;17.50;99.90;;;;;;5012961;28;20261;-77
2023/06/18 04:23:46;;;;;;;9.88;8.60;;;17.50;99.90;;;;;;5017049;28;20186;-78
2023/06/18 04:26:12;;;;;;;12.57;9.15;;;17.50;99.90;;;;;;5023614;28;20198;-78
2023/06/18 04:28:37;;;;;;;13.27;9.48;;;17.60;99.90;;;;;;5013265;28;20260;-78
2023/06/18 04:31:03;;;;;;;14.50;9.05;;;17.60;99.90;;;;;;5016341;28;20186;-78
2023/06/18 04:33:29;;;;;;;13.25;9.95;;;17.60;99.90;;;;;;5013139;28;20182;-77
2023/06/18 04:35:54;;;;;;;16.23;9.95;;;17.60;99.90;;;;;;5013075;28;20167;-78
2023/06/18 04:38:21;;;;;;;13.10;9.52;;;17.60;99.90;;;;;;5012927;28;20210;-75
2023/06/18 04:40:47;;;;;;;11.13;9.77;;;17.50;99.90;;;;;;5012656;28;20177;-74
2023/06/18 04:43:13;;;;;;;11.98;9.35;;;17.50;99.90;;;;;;5012802;28;20189;-74
2023/06/18 04:45:39;;;;;;;11.55;8.75;;;;;;;;;;5012851;28;20187;-74
2023/06/18 04:48:05;;;;;;;14.00;8.88;;;17.60;99.90;;;;;;5023702;28;20177;-74
2023/06/18 04:50:30;;;;;;;12.98;8.88;;;17.60;99.90;;;;;;5014709;28;20253;-74
2023/06/18 04:52:56;;;;;;;11.57;8.50;;;17.50;99.90;;;;;;5012305;28;20579;-75
2023/06/18 04:55:22;;;;;;;12.27;9.57;;;17.40;99.90;;;;;;5013713;28;20175;-74
2023/06/18 04:57:48;;;;;;;12.27;9.95;;;17.60;99.90;;;;;;5019365;28;20225;-69
2023/06/18 05:00:15;;;;;;;13.95;10.73;;;16.20;99.90;;;;;;5015480;28;20237;-72
2023/06/18 05:02:41;;;;;;;14.82;10.00;;;17.50;99.90;;;;;;5012466;28;20175;-73
2023/06/18 05:05:08;;;;;;;12.68;10.45;;;17.40;99.90;;;;;;5012327;28;20484;-70
2023/06/18 05:07:33;;;;;;;12.25;10.40;;;17.40;99.90;;;;;;5000761;28;20178;-73
2023/06/18 05:09:59;;;;;;;15.50;10.93;;;;;;;;;;5012188;28;20171;-74
2023/06/18 05:12:25;;;;;;;14.32;10.55;;;17.50;99.90;;;;;;5012027;28;20254;-73
2023/06/18 05:14:51;;;;;;;12.02;9.93;;;17.60;99.90;;;;;;5012303;28;20179;-74
2023/06/18 05:17:16;;;;;;;14.02;9.65;;;17.50;99.90;;;;;;5014495;28;20661;-74
2023/06/18 05:19:42;;;;;;;12.27;9.63;;;17.60;99.90;;;;;;5012455;28;20174;-73
2023/06/18 05:22:07;;;;;;;16.60;9.90;;;17.60;99.90;;;;;;5017328;28;20178;-75
2023/06/18 05:24:33;;;;;;;11.73;9.68;;;17.60;99.90;;;;;;5012100;28;20250;-74
2023/06/18 05:26:58;;;;;;;16.92;10.23;;;17.70;99.90;;;;;;5012502;28;20584;-73
2023/06/18 05:29:24;;;;;;;14.38;10.00;;;17.60;99.90;;;;;;5011893;28;20277;-73
2023/06/18 05:31:50;;;;;;;15.07;9.60;;;17.70;99.90;;;;;;5011849;28;20166;-74
2023/06/18 05:34:15;;;;;;;11.52;9.40;;;17.70;99.90;;;;;;5011678;28;20174;-70
2023/06/18 05:36:41;;;;;;;12.45;8.48;;;17.80;99.90;;;;;;5013476;28;20162;-69
2023/06/18 05:39:07;;;;;;;12.27;8.70;;;18.00;99.90;;;;;;5012187;28;20273;-70
2023/06/18 05:41:32;;;;;;;15.35;8.18;;;18.00;99.90;;;;;;5011493;28;20684;-70
2023/06/18 05:43:58;;;;;;;14.85;8.23;;;18.10;99.90;;;;;;5011595;28;20273;-71
2023/06/18 05:46:23;;;;;;;11.05;8.63;;;18.20;99.90;;;;;;5015977;28;20174;-70
2023/06/18 05:48:49;;;;;;;11.63;8.30;;;18.20;99.90;;;;;;5012487;28;20705;-70
2023/06/18 05:51:15;;;;;;;11.77;8.80;;;18.30;99.90;;;;;;5026103;28;20247;-69
2023/06/18 05:53:41;;;;;;;11.27;9.15;;;18.30;99.90;;;;;;5011787;28;20173;-70
2023/06/18 05:56:06;;;;;;;14.15;9.95;;;18.30;99.90;;;;;;5012913;28;20656;-70
2023/06/18 05:58:32;;;;;;;12.30;9.27;;;;;;;;;;5030835;28;20694;-70
2023/06/18 06:00:58;;;;;;;10.82;9.40;;;18.40;99.90;;;;;;5024103;28;20185;-70
2023/06/18 06:03:25;;;;;;;14.50;9.85;;;18.40;99.90;;;;;;5011587;28;20574;-70
2023/06/18 06:05:50;;;;;;;10.60;8.98;;;18.50;99.90;;;;;;5013379;28;20568;-71
2023/06/18 06:08:16;;;;;;;15.95;9.88;;;18.50;99.90;;;;;;5011394;28;20185;-77
2023/06/18 06:10:43;;;;;;;11.68;9.18;;;18.60;99.90;;;;;;5008951;28;20177;-71
2023/06/18 06:13:09;;;;;;;17.70;9.02;;;18.70;99.90;;;;;;4991625;28;20273;-69
2023/06/18 06:15:35;;;;;;;10.68;8.32;;;18.90;99.90;;;;;;4991742;28;20675;-69
2023/06/18 06:18:01;;;;;;;14.75;9.70;;;19.00;99.90;;;;;;5006335;28;20260;-68
2023/06/18 06:20:27;;;;;;;14.38;10.13;;;19.20;99.90;;;;;;5010948;28;20174;-68
2023/06/18 06:22:53;;;;;;;15.45;11.57;;;19.40;99.90;;;;;;5011123;28;20175;-69
2023/06/18 06:25:19;;;;;;;14.70;11.60;;;19.50;99.90;;;;;;5012394;28;20577;-68
2023/06/18 06:27:44;;;;;;;19.15;12.73;;;19.70;99.90;;;;;;5012765;28;20181;-68
2023/06/18 06:30:10;;;;;;;14.30;11.45;;;19.70;99.90;;;;;;5013886;28;20183;-67
2023/06/18 06:32:36;;;;;;;11.10;9.95;;;19.70;99.90;;;;;;5018508;28;20171;-70
2023/06/18 06:35:03;;;;;;;12.93;10.30;;;19.70;99.90;;;;;;5011746;28;20177;-67
2023/06/18 06:37:29;;;;;;;15.23;10.77;;;19.80;99.90;;;;;;5010841;28;20202;-67
2023/06/18 06:39:55;;;;;;;15.32;13.35;;;19.90;99.90;;;;;;5010827;28;20182;-65
2023/06/18 06:42:22;;;;;;;19.33;15.10;;;19.90;99.90;;;;;;5015628;28;20179;-66
2023/06/18 06:44:47;;;;;;;19.23;14.07;;;19.90;99.90;;;;;;5010610;28;20257;-66
2023/06/18 06:47:13;;;;;;;20.00;15.60;;;19.90;99.90;;;;;;5010757;28;20637;-65
2023/06/18 06:49:38;;;;;;;19.73;15.48;;;19.80;99.90;;;;;;5010730;28;20651;-66
2023/06/18 06:52:04;;;;;;;19.20;14.50;;;19.80;99.90;;;;;;5010525;28;20261;-66
2023/06/18 06:54:30;;;;;;;19.75;14.90;;;19.90;99.90;;;;;;5011603;28;20536;-66
2023/06/18 06:56:55;;;;;;;19.70;13.85;;;19.80;99.90;;;;;;5010288;28;20182;-67
2023/06/18 06:59:21;;;;;;;18.33;14.75;;;19.90;99.90;;;;;;5010725;28;20683;-65
2023/06/18 07:01:47;;;;;;;19.50;14.98;;;19.90;99.90;;;;;;5010660;28;20175;-65
2023/06/18 07:04:13;;;;;;;23.77;15.40;;;19.70;99.90;;;;;;5010889;28;20579;-64
2023/06/18 07:06:39;;;;;;;20.98;15.75;;;19.70;99.90;;;;;;5013268;28;20178;-67
2023/06/18 07:09:08;;;;;;;19.45;15.43;;;19.70;99.90;;;;;;5016834;28;20174;-67
2023/06/18 07:11:37;;;;;;;21.08;14.48;;;19.90;99.90;;;;;;5013994;28;20186;-67
2023/06/18 07:14:04;;;;;;;17.90;14.45;;;19.90;99.90;;;;;;5014120;28;20252;-65
2023/06/18 07:16:31;;;;;;;18.45;14.75;;;20.00;99.90;;;;;;5013947;28;20174;-65
2023/06/18 07:18:56;;;;;;;18.17;14.07;;;20.00;99.90;;;;;;4998145;28;20270;-66
2023/06/18 07:21:22;;;;;;;20.33;14.40;;;20.20;99.90;;;;;;5033865;28;20169;-66
2023/06/18 07:23:47;;;;;;;21.08;14.35;;;20.20;99.90;;;;;;5019864;28;20649;-66
2023/06/18 07:26:13;;;;;;;20.92;13.98;;;20.50;99.90;;;;;;5013917;28;20170;-65
2023/06/18 07:28:39;;;;;;;19.52;14.02;;;;;;;;;;5013856;28;20249;-66
2023/06/18 07:31:05;;;;;;;17.60;14.07;;;20.30;99.90;;;;;;4996357;28;20226;-66
2023/06/18 07:33:31;;;;;;;16.70;13.75;;;20.60;99.90;;;;;;5013769;28;20540;-67
2023/06/18 07:35:57;;;;;;;17.40;14.32;;;20.70;99.90;;;;;;4996311;28;20171;-67
2023/06/18 07:38:22;;;;;;;19.90;13.70;;;20.60;99.90;;;;;;5013685;28;20669;-66
2023/06/18 07:40:48;;;;;;;19.10;14.45;;;20.70;99.90;;;;;;5016546;28;20175;-66
2023/06/18 07:43:14;;;;;;;19.48;15.40;;;20.70;99.90;;;;;;5012722;28;20171;-65
2023/06/18 07:45:40;;;;;;;20.50;14.68;;;20.70;99.90;;;;;;5013278;28;20201;-67
2023/06/18 07:48:07;;;;;;;20.20;14.32;;;21.00;99.90;;;;;;5013730;28;20179;-67
2023/06/18 07:50:33;;;;;;;18.05;15.30;;;20.90;99.90;;;;;;5018000;28;20220;-67
2023/06/18 07:52:59;;;;;;;19.52;15.27;;;21.00;99.90;;;;;;5016808;28;20234;-66
2023/06/18 07:55:25;;;;;;;17.08;13.68;;;;;;;;;;5013317;28;20185;-67
2023/06/18 07:57:51;;;;;;;19.35;13.55;;;21.10;99.90;;;;;;5013043;28;20203;-66
2023/06/18 08:00:17;;;;;;;20.45;14.55;;;21.10;99.90;;;;;;5013700;28;20625;-67
2023/06/18 08:02:44;;;;;;;18.45;15.25;;;;;;;;;;5013428;28;20266;-66
2023/06/18 08:05:10;;;;;;;22.17;14.85;;;21.20;99.90;;;;;;5013087;28;20262;-67
2023/06/18 08:07:36;;;;;;;19.27;14.70;;;21.40;99.90;;;;;;5013171;28;20606;-67
2023/06/18 08:10:02;;;;;;;19.42;15.32;;;21.50;99.90;;;;;;5017070;28;20174;-67
2023/06/18 08:12:27;;;;;;;20.27;14.68;;;21.70;1.00;;;;;;5016780;28;20515;-66
2023/06/18 08:14:53;;;;;;;22.83;15.50;;;22.00;1.00;;;;;;5013001;28;20190;-72
2023/06/18 08:17:18;;;;;;;20.20;14.23;;;21.90;1.00;;;;;;5011976;28;20284;-72
2023/06/18 08:19:45;;;;;;;21.83;16.13;;;22.10;1.00;;;;;;5012889;28;20182;-72
2023/06/18 08:22:12;;;;;;;19.20;13.63;;;21.80;1.00;;;;;;4991376;28;20600;-72
2023/06/18 08:24:37;;;;;;;23.02;14.23;;;22.00;1.00;;;;;;5004752;28;20175;-71
2023/06/18 08:27:03;;;;;;;20.25;13.18;;;21.90;1.00;;;;;;5016178;28;20650;-73
2023/06/18 08:29:29;;;;;;;25.80;13.23;;;22.10;1.00;;;;;;5013132;28;20178;-75
2023/06/18 08:31:55;;;;;;;22.45;13.32;;;22.10;1.00;;;;;;5017900;28;20662;-70
2023/06/18 08:34:20;;;;;;;18.73;12.57;;;22.30;1.00;;;;;;5021439;28;20186;-67
2023/06/18 08:36:47;;;;;;;15.38;12.20;;;22.40;1.00;;;;;;5023960;28;20656;-68
2023/06/18 08:39:15;;;;;;;18.00;11.98;;;22.50;99.90;;;;;;5032070;28;20219;-69
2023/06/18 08:41:43;;;;;;;19.08;13.32;;;;;;;;;;5023934;28;20190;-68
2023/06/18 08:44:09;;;;;;;15.68;11.93;;;22.60;1.00;;;;;;5012666;28;20233;-68
2023/06/18 08:46:35;;;;;;;21.88;11.95;;;22.80;99.90;;;;;;5012330;28;20202;-68
2023/06/18 08:49:02;;;;;;;20.58;11.98;;;23.00;1.00;;;;;;5015748;28;20174;-68
2023/06/18 08:51:28;;;;;;;18.90;11.45;;;23.20;1.00;;;;;;5012402;28;20219;-68
2023/06/18 08:54:12;;;;;;;15.55;11.82;;;23.30;60.00;;;;;;5011980;28;20185;-68
2023/06/18 08:56:43;;;;;;;17.08;10.20;;;23.90;1.00;;;;;;5012352;28;20591;-68
2023/06/18 08:59:10;;;;;;;14.05;10.52;;;23.70;99.90;;;;;;5011563;28;20586;-68
2023/06/18 09:01:37;;;;;;;15.60;10.52;;;23.90;99.90;;;;;;5020521;28;20175;-69
2023/06/18 09:04:03;;;;;;;18.35;12.23;;;23.90;80.80;;;;;;5017152;28;20170;-68
2023/06/18 09:06:29;;;;;;;14.85;12.25;;;;;;;;;;5019392;28;20205;-68
2023/06/18 09:08:56;;;;;;;19.83;12.90;;;23.40;1.00;;;;;;5012175;28;20189;-68
2023/06/18 09:11:22;;;;;;;18.48;11.95;;;23.30;1.00;;;;;;5024986;28;20192;-68
2023/06/18 09:13:48;;;;;;;20.50;12.45;;;23.70;1.00;;;;;;5027026;28;20177;-71
2023/06/18 09:16:13;;;;;;;15.18;12.27;;;23.90;1.00;;;;;;5028813;28;20163;-67
2023/06/18 09:18:40;;;;;;;20.27;12.60;;;23.90;99.90;;;;;;5011923;28;20524;-69
2023/06/18 09:21:06;;;;;;;16.23;12.27;;;24.00;1.00;;;;;;5011959;28;20175;-68
2023/06/18 09:23:32;;;;;;;16.10;11.52;;;24.10;1.00;;;;;;5011916;28;20178;-68
2023/06/18 09:25:58;;;;;;;14.57;11.65;;;24.50;99.90;;;;;;4993734;28;20174;-68
2023/06/18 09:28:25;;;;;;;14.77;12.35;;;24.60;1.00;;;;;;5011497;28;20649;-68
2023/06/18 09:30:52;;;;;;;16.88;11.88;;;24.60;1.00;;;;;;5011836;28;20641;-68
2023/06/18 09:33:32;;;;;;;14.13;10.93;;;24.50;1.00;;;;;;5011675;28;20557;-69
2023/06/18 09:36:03;;;;;;;12.18;10.75;;;24.60;1.00;;;;;;5014357;28;20182;-68
2023/06/18 09:38:37;;;;;;;17.45;11.75;;;24.70;1.00;;;;;;5026054;28;20298;-68
2023/06/18 09:41:09;;;;;;;19.10;11.52;;;24.60;1.00;;;;;;5031337;28;20170;-67
2023/06/18 09:43:36;;;;;;;13.32;11.38;;;24.60;1.00;;;;;;5031323;28;20188;-66
2023/06/18 09:46:09;;;;;;;19.08;11.55;;;24.60;1.00;;;;;;5031085;28;20522;-67
2023/06/18 09:48:36;;;;;;;17.02;11.30;;;24.70;1.00;;;;;;5013409;28;20174;-67
2023/06/18 09:51:02;;;;;;;13.30;11.77;;;24.70;1.00;;;;;;5031062;28;20248;-67
2023/06/18 09:53:28;;;;;;;13.23;11.30;;;24.80;1.00;;;;;;5013479;28;20264;-68
2023/06/18 09:56:06;;;;;;;16.65;10.50;;;24.70;1.00;;;;;;5030862;28;20269;-68
2023/06/18 09:58:46;;;;;;;12.10;9.85;;;24.80;99.90;;;;;;5031118;28;20245;-67
2023/06/18 10:01:12;;;;;;;13.75;9.85;;;25.10;1.00;;;;;;5012615;28;20181;-68
2023/06/18 10:03:38;;;;;;;15.85;10.75;;;25.00;1.00;;;;;;5031140;28;20170;-68
2023/06/18 10:06:23;;;;;;;19.02;10.23;;;24.80;1.00;;;;;;5029435;28;20190;-68
2023/06/18 10:08:55;;;;;;;12.98;9.20;;;24.80;1.00;;;;;;5030833;28;20668;-69
2023/06/18 10:11:21;;;;;;;13.63;8.38;;;24.90;1.00;;;;;;5030881;28;20169;-68
2023/06/18 10:13:47;;;;;;;10.50;8.88;;;25.20;1.00;;;;;;5022943;28;20169;-67
2023/06/18 10:16:15;;;;;;;21.00;10.55;;;25.10;99.90;;;;;;5011109;28;20508;-67
2023/06/18 10:18:55;;;;;;;15.75;9.48;;;25.20;1.00;;;;;;5010916;28;20711;-67
2023/06/18 10:21:23;;;;;;;17.42;10.80;;;25.30;99.90;;;;;;4995061;28;20648;-67
2023/06/18 10:23:53;;;;;;;15.43;10.75;;;25.20;99.90;;;;;;5011104;28;20701;-68
2023/06/18 10:26:21;;;;;;;13.93;10.68;;;25.30;1.00;;;;;;5000819;28;20207;-67
2023/06/18 10:28:49;;;;;;;16.42;10.32;;;25.40;1.00;;;;;;5007931;28;20179;-68
2023/06/18 10:31:15;;;;;;;14.45;9.82;;;25.70;99.90;;;;;;4993397;28;20177;-68
2023/06/18 10:33:42;;;;;;;14.32;10.90;;;25.80;1.00;;;;;;5011072;28;20236;-67
2023/06/18 10:36:09;;;;;;;18.00;10.40;;;25.90;99.90;;;;;;5011055;28;20174;-67
2023/06/18 10:38:35;;;;;;;15.32;10.93;;;25.70;1.00;;;;;;5022261;28;20209;-66
2023/06/18 10:41:12;;;;;;;14.52;12.13;;;25.80;99.90;;;;;;5017679;28;20190;-66
2023/06/18 10:43:39;;;;;;;15.40;10.35;;;25.60;99.90;;;;;;5034686;28;20204;-67
2023/06/18 10:46:11;;;;;;;18.83;10.57;;;25.80;99.90;;;;;;5034680;28;20208;-67
2023/06/18 10:48:37;;;;;;;16.38;10.80;;;26.10;1.00;;;;;;5015013;28;20178;-68
2023/06/18 10:51:17;;;;;;;13.48;10.35;;;25.60;1.00;;;;;;5034362;28;20173;-67
2023/06/18 10:53:45;;;;;;;14.48;10.48;;;26.10;1.00;;;;;;5018185;28;20189;-67
2023/06/18 10:56:14;;;;;;;14.25;10.80;;;26.10;1.00;;;;;;5020951;28;20221;-67
2023/06/18 10:58:41;;;;;;;14.98;10.68;;;26.10;1.00;;;;;;5014284;28;20375;-68
2023/06/18 11:01:06;;;;;;;23.40;12.07;;;26.10;1.00;;;;;;5014687;28;20167;-69
2023/06/18 11:03:34;;;;;;;21.83;13.43;;;26.10;99.90;;;;;;5017488;28;20613;-68
2023/06/18 11:06:02;;;;;;;15.23;11.25;;;25.80;1.00;;;;;;5018591;28;20743;-68
2023/06/18 11:08:32;;;;;;;15.68;11.60;;;25.90;1.00;;;;;;4996646;28;20171;-68
2023/06/18 11:11:06;;;;;;;18.23;12.90;;;25.90;1.00;;;;;;5011662;28;20179;-69
2023/06/18 11:13:37;;;;;;;21.52;12.40;;;25.60;1.00;;;;;;5014222;28;20174;-67
2023/06/18 11:16:06;;;;;;;20.25;12.27;;;25.50;1.00;;;;;;5014015;28;20313;-68
2023/06/18 11:18:33;;;;;;;17.63;11.60;;;25.60;99.90;;;;;;5012364;28;20218;-68
2023/06/18 11:21:00;;;;;;;13.77;11.60;;;25.60;99.90;;;;;;5014166;28;20182;-68
2023/06/18 11:23:27;;;;;;;13.77;11.65;;;25.50;1.00;;;;;;5016960;28;20228;-67
2023/06/18 11:25:53;;;;;;;17.80;13.13;;;25.40;1.00;;;;;;5013896;28;20641;-68
2023/06/18 11:28:21;;;;;;;18.00;12.02;;;25.30;1.00;;;;;;5015872;28;20209;-69
2023/06/18 11:30:48;;;;;;;14.48;11.75;;;25.20;99.90;;;;;;5033682;28;20217;-68
2023/06/18 11:33:21;;;;;;;18.25;12.23;;;25.20;1.00;;;;;;5015694;28;20190;-69
2023/06/18 11:35:46;;;;;;;19.60;12.73;;;25.10;99.90;;;;;;5014045;28;20183;-68
2023/06/18 11:38:12;;;;;;;13.77;11.25;;;25.10;1.00;;;;;;5012932;28;20214;-68
2023/06/18 11:40:48;;;;;;;17.70;11.70;;;25.50;1.00;;;;;;5013733;28;20175;-69
2023/06/18 11:43:13;;;;;;;17.67;12.25;;;25.70;1.00;;;;;;5013938;28;20193;-72
2023/06/18 11:45:39;;;;;;;15.13;11.52;;;25.40;99.90;;;;;;5014955;28;20732;-68
2023/06/18 11:48:05;;;;;;;14.38;11.23;;;25.50;1.00;;;;;;5026334;28;20170;-69
2023/06/18 11:50:30;;;;;;;15.18;11.73;;;25.60;99.90;;;;;;5015609;28;20262;-68
2023/06/18 11:52:56;;;;;;;12.90;11.25;;;25.70;1.00;;;;;;5012002;28;20218;-68
2023/06/18 11:55:22;;;;;;;14.05;10.82;;;25.90;99.90;;;;;;5013992;28;20659;-69
2023/06/18 11:57:47;;;;;;;13.43;10.55;;;25.90;99.90;;;;;;5012824;28;20568;-68
2023/06/18 12:00:14;;;;;;;18.83;11.40;;;25.40;99.90;;;;;;5013621;28;20170;-67
2023/06/18 12:02:41;;;;;;;15.10;11.32;;;25.10;1.00;;;;;;5013603;28;20266;-66
2023/06/18 12:05:07;;;;;;;14.65;12.02;;;25.20;1.00;;;;;;5013472;28;20174;-67
2023/06/18 12:07:33;;;;;;;16.42;11.48;;;25.00;1.00;;;;;;5013264;28;20183;-67
2023/06/18 12:10:07;;;;;;;19.92;12.32;;;24.70;1.00;;;;;;5013174;28;20641;-67
2023/06/18 12:12:45;;;;;;;15.35;12.68;;;24.80;1.00;;;;;;5013463;28;20174;-68
2023/06/18 12:15:45;;;;;;;17.67;11.98;;;24.70;99.90;;;;;;5013154;28;20167;-67
2023/06/18 12:18:21;;;;;;;22.52;12.45;;;24.70;1.00;;;;;;5013046;28;20214;-68
2023/06/18 12:20:48;;;;;;;16.85;12.05;;;24.80;1.00;;;;;;4995795;28;20268;-68
2023/06/18 12:23:14;;;;;;;16.83;11.00;;;25.00;99.90;;;;;;5012984;28;20242;-68
2023/06/18 12:25:39;;;;;;;19.02;12.18;;;25.30;99.90;;;;;;5012965;28;20174;-67
2023/06/18 12:28:06;;;;;;;20.08;11.25;;;25.40;1.00;;;;;;5012839;28;20178;-68
2023/06/18 12:30:37;;;;;;;16.65;10.20;;;25.40;1.00;;;;;;5011915;28;20178;-68
2023/06/18 12:33:07;;;;;;;14.02;10.35;;;25.80;1.00;;;;;;5000849;28;20171;-68
2023/06/18 12:35:34;;;;;;;13.25;9.05;;;26.20;3.30;;;;;;5012918;28;20185;-68
2023/06/18 12:38:06;;;;;;;14.43;8.40;;;26.60;23.40;;;;;;5000984;28;20716;-68